createdAt,value
2018-09-20T00:04:35.840Z,101168.00
2018-09-20T00:10:39.285Z,101161.00
2018-09-20T00:16:42.742Z,101157.00
2018-09-20T00:22:46.720Z,101144.00
2018-09-20T00:28:50.971Z,101150.00
2018-09-20T00:34:55.176Z,101139.00
2018-09-20T00:40:58.752Z,101138.00
2018-09-20T00:47:02.957Z,101122.00
2018-09-20T00:53:07.205Z,101127.00
2018-09-20T00:59:10.579Z,101135.00
2018-09-20T01:05:14.053Z,101134.00
2018-09-20T01:11:17.496Z,101138.00
2018-09-20T01:17:20.943Z,101142.00
2018-09-20T01:23:24.393Z,101141.00
2018-09-20T01:29:27.821Z,101143.00
2018-09-20T01:35:31.408Z,101152.00
2018-09-20T01:41:35.365Z,101144.00
2018-09-20T01:47:40.185Z,101144.00
2018-09-20T01:53:43.784Z,101144.00
2018-09-20T01:59:47.817Z,101143.00
2018-09-20T02:05:51.185Z,101144.00
2018-09-20T02:11:54.736Z,101147.00
2018-09-20T02:17:58.177Z,101145.00
2018-09-20T02:24:01.777Z,101142.00
2018-09-20T02:30:05.508Z,101072.00
2018-09-20T02:36:09.119Z,101149.00
2018-09-20T02:42:12.741Z,101164.00
2018-09-20T02:48:16.077Z,101142.00
2018-09-20T02:54:25.759Z,101133.00
2018-09-20T03:00:29.177Z,101128.00
2018-09-20T03:06:32.662Z,101122.00
2018-09-20T03:12:36.833Z,101135.00
2018-09-20T03:18:40.247Z,101141.00
2018-09-20T03:24:44.387Z,101134.00
2018-09-20T03:30:48.476Z,101139.00
2018-09-20T03:36:52.007Z,101136.00
2018-09-20T03:42:55.375Z,101125.00
2018-09-20T03:48:58.780Z,101134.00
2018-09-20T03:55:02.292Z,101130.00
2018-09-20T04:01:05.706Z,101123.00
2018-09-20T04:07:09.252Z,101126.00
2018-09-20T04:13:13.976Z,101118.00
2018-09-20T04:19:17.558Z,101122.00
2018-09-20T04:25:20.994Z,101119.00
2018-09-20T04:31:24.873Z,101120.00
2018-09-20T04:37:28.421Z,101122.00
2018-09-20T04:43:32.348Z,101126.00
2018-09-20T04:49:35.772Z,101129.00
2018-09-20T04:55:39.860Z,101135.00
2018-09-20T05:01:43.388Z,101130.00
2018-09-20T05:07:46.803Z,101127.00
2018-09-20T05:13:50.317Z,101129.00
2018-09-20T05:19:54.597Z,101118.00
2018-09-20T05:25:58.333Z,101117.00
2018-09-20T05:32:01.922Z,101123.00
2018-09-20T05:38:05.874Z,101117.00
2018-09-20T05:44:10.732Z,101124.00
2018-09-20T05:50:14.259Z,101132.00
2018-09-20T05:56:18.485Z,101124.00
2018-09-20T06:02:22.028Z,101124.00
2018-09-20T06:08:25.745Z,101130.00
2018-09-20T06:14:29.154Z,101125.00
2018-09-20T06:20:32.624Z,101130.00
2018-09-20T06:26:36.178Z,101138.00
2018-09-20T06:32:39.911Z,101129.00
2018-09-20T06:38:43.644Z,101129.00
2018-09-20T06:44:47.197Z,101126.00
2018-09-20T06:50:50.897Z,101121.00
2018-09-20T06:56:54.287Z,101120.00
2018-09-20T07:02:57.902Z,101121.00
2018-09-20T07:09:01.512Z,101115.00
2018-09-20T07:15:07.307Z,101122.00
2018-09-20T07:21:10.842Z,101122.00
2018-09-20T07:27:15.015Z,101121.00
2018-09-20T07:33:18.451Z,101122.00
2018-09-20T07:39:22.295Z,101124.00
2018-09-20T07:45:26.361Z,101124.00
2018-09-20T07:51:30.109Z,101128.00
2018-09-20T07:57:34.422Z,101131.00
2018-09-20T08:03:39.838Z,101136.00
2018-09-20T08:09:43.266Z,101128.00
2018-09-20T08:15:46.833Z,101129.00
2018-09-20T08:21:50.604Z,101132.00
2018-09-20T08:27:54.103Z,101136.00
2018-09-20T08:33:57.644Z,101125.00
2018-09-20T08:40:01.069Z,101123.00
2018-09-20T08:46:04.571Z,101124.00
2018-09-20T08:52:07.997Z,101130.00
2018-09-20T08:58:11.357Z,101124.00
2018-09-20T09:04:14.929Z,101122.00
2018-09-20T09:10:18.428Z,101118.00
2018-09-20T09:16:28.581Z,101100.00
2018-09-20T09:22:32.014Z,101103.00
2018-09-20T09:28:35.579Z,101086.00
2018-09-20T09:34:39.024Z,101086.00
2018-09-20T09:40:42.482Z,101101.00
2018-09-20T09:46:46.050Z,101078.00
2018-09-20T09:52:49.745Z,101090.00
2018-09-20T09:58:53.187Z,101079.00
2018-09-20T10:04:57.245Z,101082.00
2018-09-20T10:11:00.791Z,101080.00
2018-09-20T10:17:04.897Z,101074.00
2018-09-20T10:23:08.318Z,101062.00
2018-09-20T10:29:13.335Z,101057.00
2018-09-20T10:35:16.830Z,101044.00
2018-09-20T10:41:20.491Z,101048.00
2018-09-20T10:47:24.452Z,101049.00
2018-09-20T10:53:27.954Z,101031.00
2018-09-20T10:59:31.305Z,101030.00
2018-09-20T11:05:34.842Z,101030.00
2018-09-20T11:11:38.272Z,101035.00
2018-09-20T11:17:41.828Z,101027.00
2018-09-20T11:23:45.767Z,101033.00
2018-09-20T11:29:49.143Z,101031.00
2018-09-20T11:35:52.566Z,101025.00
2018-09-20T11:41:56.068Z,101030.00
2018-09-20T11:47:59.769Z,101042.00
2018-09-20T11:54:03.512Z,101031.00
2018-09-20T12:00:07.242Z,101030.00
2018-09-20T12:06:11.114Z,101012.00
2018-09-20T12:12:16.129Z,101011.00
2018-09-20T12:18:22.097Z,100989.00
2018-09-20T12:24:25.559Z,100986.00
2018-09-20T12:30:28.976Z,100991.00
2018-09-20T12:36:32.643Z,100975.00
2018-09-20T12:42:36.110Z,100967.00
2018-09-20T12:48:40.354Z,100959.00
2018-09-20T12:54:44.513Z,100950.00
2018-09-20T13:00:48.267Z,100937.00
2018-09-20T13:06:51.980Z,100940.00
2018-09-20T13:12:55.667Z,100940.00
2018-09-20T13:18:59.098Z,100938.00
2018-09-20T13:25:02.583Z,100937.00
2018-09-20T13:31:06.110Z,100924.00
2018-09-20T13:37:10.283Z,100924.00
2018-09-20T13:43:13.830Z,100910.00
2018-09-20T13:49:17.317Z,100896.00
2018-09-20T13:55:20.875Z,100893.00
2018-09-20T14:01:24.642Z,100888.00
2018-09-20T14:07:28.101Z,100878.00
2018-09-20T14:13:31.622Z,100867.00
2018-09-20T14:19:35.685Z,100860.00
2018-09-20T14:25:50.238Z,100854.00
2018-09-20T14:38:29.777Z,100822.00
2018-09-20T14:44:33.376Z,100810.00
2018-09-20T14:50:36.872Z,100798.00
2018-09-20T14:56:41.325Z,100796.00
2018-09-20T15:02:44.952Z,100785.00
2018-09-20T15:08:48.698Z,100776.00
2018-09-20T15:14:52.434Z,100773.00
2018-09-20T15:20:57.246Z,100766.00
2018-09-20T15:27:02.441Z,100756.00
2018-09-20T15:33:06.747Z,100748.00
2018-09-20T15:39:11.469Z,100742.00
2018-09-20T15:45:16.229Z,100702.00
2018-09-20T15:51:19.706Z,100737.00
2018-09-20T15:57:23.250Z,100736.00
2018-09-20T16:03:26.854Z,100727.00
2018-09-20T16:09:30.452Z,100717.00
2018-09-20T16:15:34.209Z,100712.00
2018-09-20T16:21:38.011Z,100701.00
2018-09-20T16:27:41.857Z,100695.00
2018-09-20T16:34:19.937Z,100676.00
2018-09-20T16:40:26.668Z,100661.00
2018-09-20T16:47:09.096Z,100665.00
2018-09-20T16:53:13.730Z,100650.00
2018-09-20T16:59:17.756Z,100650.00
2018-09-20T17:05:22.743Z,100639.00
2018-09-20T17:11:26.861Z,100643.00
2018-09-20T17:17:31.385Z,100634.00
2018-09-20T17:23:35.088Z,100625.00
2018-09-20T17:29:38.808Z,100616.00
2018-09-20T17:35:47.536Z,100615.00
2018-09-20T17:41:52.875Z,100615.00
2018-09-20T17:47:56.762Z,100615.00
2018-09-20T17:54:01.207Z,100606.00
2018-09-20T18:00:06.908Z,100600.00
2018-09-20T18:06:11.866Z,100593.00
2018-09-20T18:12:16.578Z,100595.00
2018-09-20T18:18:21.222Z,100574.00
2018-09-20T18:24:25.262Z,100593.00
2018-09-20T18:30:29.623Z,100594.00
2018-09-20T18:36:33.399Z,100581.00
2018-09-20T18:42:37.236Z,100569.00
2018-09-20T18:48:41.496Z,100589.00
2018-09-20T18:54:51.586Z,100589.00
2018-09-20T19:00:57.536Z,100577.00
2018-09-20T19:07:01.351Z,100580.00
2018-09-20T19:13:05.468Z,100578.00
2018-09-20T19:19:16.139Z,100563.00
2018-09-20T19:25:20.072Z,100559.00
2018-09-20T19:31:23.881Z,100551.00
2018-09-20T19:37:27.553Z,100544.00
2018-09-20T19:43:32.244Z,100550.00
2018-09-20T19:49:36.702Z,100547.00
2018-09-20T19:55:40.774Z,100536.00
2018-09-20T20:01:45.335Z,100537.00
2018-09-20T20:07:54.201Z,100532.00
2018-09-20T20:13:58.689Z,100528.00
2018-09-20T20:20:04.887Z,100522.00
2018-09-20T20:26:13.364Z,100514.00
2018-09-20T20:32:19.446Z,100511.00
2018-09-20T20:38:23.956Z,100501.00
2018-09-20T20:44:28.060Z,100504.00
2018-09-20T20:50:32.434Z,100493.00
2018-09-20T20:56:36.978Z,100488.00
2018-09-20T21:02:42.013Z,100489.00
2018-09-20T21:08:46.883Z,100481.00
2018-09-20T21:14:51.264Z,100464.00
2018-09-20T21:20:55.438Z,100452.00
2018-09-20T21:26:59.338Z,100452.00
2018-09-20T21:33:02.650Z,100444.00
2018-09-20T21:39:09.717Z,100426.00
2018-09-20T21:45:14.566Z,100411.00
2018-09-20T21:51:18.149Z,100405.00
2018-09-20T21:57:21.861Z,100394.00
2018-09-20T22:03:25.314Z,100381.00
2018-09-20T22:09:29.403Z,100376.00
2018-09-20T22:15:33.658Z,100358.00
2018-09-20T22:21:37.168Z,100355.00
2018-09-20T22:27:40.803Z,100337.00
2018-09-20T22:33:44.176Z,100342.00
2018-09-20T22:39:48.430Z,100331.00
2018-09-20T22:45:51.633Z,100309.00
2018-09-20T22:51:55.206Z,100321.00
2018-09-20T22:57:59.146Z,100302.00
2018-09-20T23:04:03.374Z,100296.00
2018-09-20T23:10:07.778Z,100292.00
2018-09-20T23:16:11.342Z,100285.00
2018-09-20T23:22:15.079Z,100276.00
2018-09-20T23:28:19.384Z,100274.00
2018-09-20T23:34:23.147Z,100273.00
2018-09-20T23:40:27.568Z,100268.00
2018-09-20T23:46:31.154Z,100251.00
2018-09-20T23:52:34.755Z,100245.00
2018-09-20T23:58:38.566Z,100235.00
